Aviation Digital Data Service (ADDS)

Output produced by METARs form (1458 UTC 14 April 2021)
found at http://www.aviationweather.gov/metar/data/
 
NSFA 141400Z 16003KT 9999 FEW028 SCT280 23/23 Q1008
NSFA 141300Z 16003KT 9999 FEW027 24/23 Q1009
NSFA 141200Z 17003KT 9999 FEW028 24/23 Q1009
NSFA 141100Z 00000KT 9999 FEW028 24/23 Q1010
NSFA 141000Z 18004KT 9999 FEW030 25/24 Q1010
NSFA 140900Z 18003KT 9999 FEW028 25/24 Q1010
NSFA 140800Z VRB03KT 9999 FEW024 BKN120 25/24 Q1009
NSFA 140700Z 00000KT 9999 FEW022 BKN120 26/25 Q1009
NSFA 140600Z 35010KT 9999 SCT020 BKN045 26/25 Q1008
NSFA 140500Z 00000KT 9999 BKN020 27/26 Q1008
NSFA 140400Z 16004KT 9999 -DZ BKN020 27/26 Q1008 RERA
NSFA 140300Z VRB03KT 9999 SCT022 BKN140 30/26 Q1007
NSFA 140200Z 29006KT 9999 SCT022 BKN150 31/25 Q1007
NSFA 140100Z VRB03KT 9999 SCT022 32/26 Q1007
NSFA 140000Z 28008KT 9999 SCT022 32/26 Q1008
NSFA 132300Z 25006KT 9999 FEW020TCU SCT025 31/26 Q1008
NSFA 132200Z 17005KT 9999 BKN022 31/26 Q1009
NSFA 132100Z 22005KT 9999 FEW026 SCT150 30/25 Q1010
NSFA 132000Z 19004KT 9999 FEW026 30/25 Q1010
NSFA 131900Z 00000KT 9999 FEW024CB SCT027 26/24 Q1009 RMK CB TO N
NSFA 131800Z 18003KT 9999 FEW026 SCT150 24/23 Q1009
NSFA 131600Z 18004KT 9999 FEW028 23/23 Q1008
NSFA 131500Z 19004KT 9999 FEW028 23/23 Q1008
TAF NSFA 141115Z 1412/1512 VRB03KT 9999 FEW028 
     PROB30 
     TEMPO 1418/1424 5000 SHRA BKN015 
     PROB40 
     TEMPO 1500/1506 5000 TSRA BKN015 FEW017CB